sensor_id;sensor_type;location;lat;lon;timestamp;P1;durP1;ratioP1;P2;durP2;ratioP2
9034;SDS011;4552;43.422;24.592;2022-10-26T00:02:14;3.17;;;2.57;;
9034;SDS011;4552;43.422;24.592;2022-10-26T00:04:41;2.90;;;2.10;;
9034;SDS011;4552;43.422;24.592;2022-10-26T00:07:08;3.53;;;2.63;;
9034;SDS011;4552;43.422;24.592;2022-10-26T00:09:35;2.90;;;2.10;;
9034;SDS011;4552;43.422;24.592;2022-10-26T00:12:02;5.60;;;2.73;;
9034;SDS011;4552;43.422;24.592;2022-10-26T00:14:29;4.00;;;2.73;;
9034;SDS011;4552;43.422;24.592;2022-10-26T00:16:57;2.77;;;2.33;;
9034;SDS011;4552;43.422;24.592;2022-10-26T00:19:25;2.60;;;2.40;;
9034;SDS011;4552;43.422;24.592;2022-10-26T00:21:52;4.10;;;2.33;;
9034;SDS011;4552;43.422;24.592;2022-10-26T00:24:19;3.10;;;2.70;;
9034;SDS011;4552;43.422;24.592;2022-10-26T00:26:46;2.13;;;1.97;;
9034;SDS011;4552;43.422;24.592;2022-10-26T00:29:13;5.27;;;2.63;;
9034;SDS011;4552;43.422;24.592;2022-10-26T00:31:42;3.23;;;2.40;;
9034;SDS011;4552;43.422;24.592;2022-10-26T00:34:09;3.07;;;2.60;;
9034;SDS011;4552;43.422;24.592;2022-10-26T00:36:39;3.40;;;2.67;;
9034;SDS011;4552;43.422;24.592;2022-10-26T00:39:09;3.47;;;2.97;;
9034;SDS011;4552;43.422;24.592;2022-10-26T00:41:39;3.20;;;2.77;;
9034;SDS011;4552;43.422;24.592;2022-10-26T00:47:28;2.77;;;2.43;;
9034;SDS011;4552;43.422;24.592;2022-10-26T00:50:03;2.93;;;2.53;;
9034;SDS011;4552;43.422;24.592;2022-10-26T00:52:34;3.07;;;2.50;;
9034;SDS011;4552;43.422;24.592;2022-10-26T00:55:03;3.83;;;2.93;;
9034;SDS011;4552;43.422;24.592;2022-10-26T00:57:31;2.80;;;2.50;;
9034;SDS011;4552;43.422;24.592;2022-10-26T00:59:59;3.93;;;2.50;;
9034;SDS011;4552;43.422;24.592;2022-10-26T01:02:27;3.75;;;3.03;;
9034;SDS011;4552;43.422;24.592;2022-10-26T01:04:54;3.33;;;2.93;;
9034;SDS011;4552;43.422;24.592;2022-10-26T01:07:22;2.80;;;2.60;;
9034;SDS011;4552;43.422;24.592;2022-10-26T01:09:52;3.40;;;2.67;;
9034;SDS011;4552;43.422;24.592;2022-10-26T01:12:20;5.80;;;2.80;;
9034;SDS011;4552;43.422;24.592;2022-10-26T01:14:47;2.50;;;2.30;;
9034;SDS011;4552;43.422;24.592;2022-10-26T01:17:19;3.30;;;2.67;;
9034;SDS011;4552;43.422;24.592;2022-10-26T01:23:05;3.10;;;2.70;;
9034;SDS011;4552;43.422;24.592;2022-10-26T01:25:49;5.97;;;3.00;;
9034;SDS011;4552;43.422;24.592;2022-10-26T01:28:38;5.18;;;3.35;;
9034;SDS011;4552;43.422;24.592;2022-10-26T01:31:26;3.20;;;2.90;;
9034;SDS011;4552;43.422;24.592;2022-10-26T01:33:58;3.90;;;2.80;;
9034;SDS011;4552;43.422;24.592;2022-10-26T01:36:32;3.53;;;2.53;;
9034;SDS011;4552;43.422;24.592;2022-10-26T01:39:07;3.97;;;2.90;;
9034;SDS011;4552;43.422;24.592;2022-10-26T01:41:45;3.33;;;2.80;;
9034;SDS011;4552;43.422;24.592;2022-10-26T01:44:16;3.63;;;3.03;;
9034;SDS011;4552;43.422;24.592;2022-10-26T01:46:48;2.80;;;2.53;;
9034;SDS011;4552;43.422;24.592;2022-10-26T01:49:19;3.57;;;3.07;;
9034;SDS011;4552;43.422;24.592;2022-10-26T01:51:48;3.53;;;2.97;;
9034;SDS011;4552;43.422;24.592;2022-10-26T01:54:16;3.07;;;2.70;;
9034;SDS011;4552;43.422;24.592;2022-10-26T01:56:43;3.57;;;2.90;;
9034;SDS011;4552;43.422;24.592;2022-10-26T01:59:15;2.97;;;2.67;;
9034;SDS011;4552;43.422;24.592;2022-10-26T02:05:07;3.90;;;2.90;;
9034;SDS011;4552;43.422;24.592;2022-10-26T02:07:44;3.10;;;2.80;;
9034;SDS011;4552;43.422;24.592;2022-10-26T02:10:25;3.13;;;2.83;;
9034;SDS011;4552;43.422;24.592;2022-10-26T02:12:58;2.60;;;2.40;;
9034;SDS011;4552;43.422;24.592;2022-10-26T02:15:32;3.23;;;2.77;;
9034;SDS011;4552;43.422;24.592;2022-10-26T02:18:06;4.83;;;3.00;;
9034;SDS011;4552;43.422;24.592;2022-10-26T02:20:39;3.80;;;2.77;;
9034;SDS011;4552;43.422;24.592;2022-10-26T02:23:10;3.37;;;2.43;;
9034;SDS011;4552;43.422;24.592;2022-10-26T02:25:40;3.13;;;2.60;;
9034;SDS011;4552;43.422;24.592;2022-10-26T02:28:12;4.90;;;2.20;;
9034;SDS011;4552;43.422;24.592;2022-10-26T02:30:43;3.63;;;2.40;;
9034;SDS011;4552;43.422;24.592;2022-10-26T02:33:14;2.77;;;2.47;;
9034;SDS011;4552;43.422;24.592;2022-10-26T02:35:44;4.00;;;2.80;;
9034;SDS011;4552;43.422;24.592;2022-10-26T02:38:16;3.03;;;2.30;;
9034;SDS011;4552;43.422;24.592;2022-10-26T02:40:45;3.10;;;2.60;;
9034;SDS011;4552;43.422;24.592;2022-10-26T02:43:16;3.60;;;2.50;;
9034;SDS011;4552;43.422;24.592;2022-10-26T02:45:52;2.87;;;2.67;;
9034;SDS011;4552;43.422;24.592;2022-10-26T02:48:24;2.73;;;2.47;;
9034;SDS011;4552;43.422;24.592;2022-10-26T02:50:55;4.17;;;2.70;;
9034;SDS011;4552;43.422;24.592;2022-10-26T02:53:27;3.60;;;2.67;;
9034;SDS011;4552;43.422;24.592;2022-10-26T02:55:59;4.32;;;2.70;;
9034;SDS011;4552;43.422;24.592;2022-10-26T02:58:32;3.30;;;2.57;;
9034;SDS011;4552;43.422;24.592;2022-10-26T03:01:06;2.40;;;2.20;;
9034;SDS011;4552;43.422;24.592;2022-10-26T03:03:36;4.47;;;2.70;;
9034;SDS011;4552;43.422;24.592;2022-10-26T03:06:04;3.93;;;2.83;;
9034;SDS011;4552;43.422;24.592;2022-10-26T03:08:31;3.37;;;2.80;;
9034;SDS011;4552;43.422;24.592;2022-10-26T03:10:58;3.73;;;2.60;;
9034;SDS011;4552;43.422;24.592;2022-10-26T03:13:25;3.23;;;2.60;;
9034;SDS011;4552;43.422;24.592;2022-10-26T03:15:53;4.10;;;2.60;;
9034;SDS011;4552;43.422;24.592;2022-10-26T03:18:22;3.33;;;2.40;;
9034;SDS011;4552;43.422;24.592;2022-10-26T03:20:50;3.00;;;2.40;;
9034;SDS011;4552;43.422;24.592;2022-10-26T03:23:17;2.93;;;2.63;;
9034;SDS011;4552;43.422;24.592;2022-10-26T03:25:44;4.43;;;2.90;;
9034;SDS011;4552;43.422;24.592;2022-10-26T03:28:11;3.80;;;2.90;;
9034;SDS011;4552;43.422;24.592;2022-10-26T03:30:38;4.37;;;2.90;;
9034;SDS011;4552;43.422;24.592;2022-10-26T03:33:05;3.50;;;2.60;;
9034;SDS011;4552;43.422;24.592;2022-10-26T03:35:33;2.90;;;2.30;;
9034;SDS011;4552;43.422;24.592;2022-10-26T03:38:02;2.53;;;2.13;;
9034;SDS011;4552;43.422;24.592;2022-10-26T03:40:29;4.97;;;3.00;;
9034;SDS011;4552;43.422;24.592;2022-10-26T03:42:56;4.10;;;2.43;;
9034;SDS011;4552;43.422;24.592;2022-10-26T03:45:24;2.60;;;2.40;;
9034;SDS011;4552;43.422;24.592;2022-10-26T03:47:51;2.80;;;2.40;;
9034;SDS011;4552;43.422;24.592;2022-10-26T03:50:19;2.60;;;2.20;;
9034;SDS011;4552;43.422;24.592;2022-10-26T03:52:47;2.80;;;2.33;;
9034;SDS011;4552;43.422;24.592;2022-10-26T03:55:16;2.70;;;2.43;;
9034;SDS011;4552;43.422;24.592;2022-10-26T03:57:44;3.37;;;2.50;;
9034;SDS011;4552;43.422;24.592;2022-10-26T04:00:12;2.70;;;2.20;;
9034;SDS011;4552;43.422;24.592;2022-10-26T04:02:42;3.07;;;2.40;;
9034;SDS011;4552;43.422;24.592;2022-10-26T04:05:16;2.47;;;2.27;;
9034;SDS011;4552;43.422;24.592;2022-10-26T04:07:48;2.60;;;2.40;;
9034;SDS011;4552;43.422;24.592;2022-10-26T04:10:19;2.73;;;2.37;;
9034;SDS011;4552;43.422;24.592;2022-10-26T04:12:46;2.53;;;2.33;;
9034;SDS011;4552;43.422;24.592;2022-10-26T04:15:13;5.07;;;2.80;;
9034;SDS011;4552;43.422;24.592;2022-10-26T04:17:41;4.50;;;2.30;;
9034;SDS011;4552;43.422;24.592;2022-10-26T04:20:09;2.57;;;2.20;;
9034;SDS011;4552;43.422;24.592;2022-10-26T04:22:37;2.60;;;2.30;;
9034;SDS011;4552;43.422;24.592;2022-10-26T04:25:04;2.50;;;2.30;;
9034;SDS011;4552;43.422;24.592;2022-10-26T04:27:34;2.40;;;2.20;;
9034;SDS011;4552;43.422;24.592;2022-10-26T04:30:01;2.80;;;2.33;;
9034;SDS011;4552;43.422;24.592;2022-10-26T04:32:29;2.20;;;1.90;;
9034;SDS011;4552;43.422;24.592;2022-10-26T04:34:57;3.23;;;2.27;;
9034;SDS011;4552;43.422;24.592;2022-10-26T04:37:26;2.77;;;2.40;;
9034;SDS011;4552;43.422;24.592;2022-10-26T04:39:53;2.90;;;2.33;;
9034;SDS011;4552;43.422;24.592;2022-10-26T04:42:20;3.80;;;2.60;;
9034;SDS011;4552;43.422;24.592;2022-10-26T04:44:49;3.47;;;1.93;;
9034;SDS011;4552;43.422;24.592;2022-10-26T04:47:16;2.70;;;2.27;;
9034;SDS011;4552;43.422;24.592;2022-10-26T04:49:43;2.83;;;2.17;;
9034;SDS011;4552;43.422;24.592;2022-10-26T04:52:10;2.97;;;2.10;;
9034;SDS011;4552;43.422;24.592;2022-10-26T04:54:36;5.10;;;2.40;;
9034;SDS011;4552;43.422;24.592;2022-10-26T04:57:04;6.67;;;2.20;;
9034;SDS011;4552;43.422;24.592;2022-10-26T04:59:30;2.33;;;2.13;;
9034;SDS011;4552;43.422;24.592;2022-10-26T05:01:59;3.00;;;2.50;;
9034;SDS011;4552;43.422;24.592;2022-10-26T05:04:26;9.03;;;8.43;;
9034;SDS011;4552;43.422;24.592;2022-10-26T05:06:52;4.72;;;3.30;;
9034;SDS011;4552;43.422;24.592;2022-10-26T05:09:19;26.27;;;18.27;;
9034;SDS011;4552;43.422;24.592;2022-10-26T05:11:46;4.10;;;2.40;;
9034;SDS011;4552;43.422;24.592;2022-10-26T05:14:16;2.83;;;2.63;;
9034;SDS011;4552;43.422;24.592;2022-10-26T05:16:43;14.73;;;11.90;;
9034;SDS011;4552;43.422;24.592;2022-10-26T05:19:12;4.03;;;3.63;;
9034;SDS011;4552;43.422;24.592;2022-10-26T05:21:38;5.30;;;4.03;;
9034;SDS011;4552;43.422;24.592;2022-10-26T05:24:06;4.90;;;4.03;;
9034;SDS011;4552;43.422;24.592;2022-10-26T05:26:33;23.97;;;15.80;;
9034;SDS011;4552;43.422;24.592;2022-10-26T05:29:00;3.50;;;2.50;;
9034;SDS011;4552;43.422;24.592;2022-10-26T05:31:28;3.00;;;2.60;;
9034;SDS011;4552;43.422;24.592;2022-10-26T05:33:56;3.03;;;2.67;;
9034;SDS011;4552;43.422;24.592;2022-10-26T05:36:24;10.18;;;9.38;;
9034;SDS011;4552;43.422;24.592;2022-10-26T05:38:51;9.70;;;9.07;;
9034;SDS011;4552;43.422;24.592;2022-10-26T05:41:19;9.80;;;9.00;;
9034;SDS011;4552;43.422;24.592;2022-10-26T05:43:46;13.63;;;8.90;;
9034;SDS011;4552;43.422;24.592;2022-10-26T05:46:14;8.50;;;7.90;;
9034;SDS011;4552;43.422;24.592;2022-10-26T05:48:41;9.37;;;8.67;;
9034;SDS011;4552;43.422;24.592;2022-10-26T05:51:08;9.27;;;8.67;;
9034;SDS011;4552;43.422;24.592;2022-10-26T05:53:38;7.90;;;7.40;;
9034;SDS011;4552;43.422;24.592;2022-10-26T05:56:08;11.87;;;7.90;;
9034;SDS011;4552;43.422;24.592;2022-10-26T05:58:45;9.07;;;8.37;;
9034;SDS011;4552;43.422;24.592;2022-10-26T06:01:16;8.13;;;7.63;;
9034;SDS011;4552;43.422;24.592;2022-10-26T06:03:55;8.57;;;7.97;;
9034;SDS011;4552;43.422;24.592;2022-10-26T06:06:37;9.20;;;8.60;;
9034;SDS011;4552;43.422;24.592;2022-10-26T06:09:11;10.63;;;9.90;;
9034;SDS011;4552;43.422;24.592;2022-10-26T06:11:40;9.23;;;8.53;;
9034;SDS011;4552;43.422;24.592;2022-10-26T06:14:09;9.67;;;9.03;;
9034;SDS011;4552;43.422;24.592;2022-10-26T06:16:39;8.93;;;8.33;;
9034;SDS011;4552;43.422;24.592;2022-10-26T06:19:19;9.23;;;8.53;;
9034;SDS011;4552;43.422;24.592;2022-10-26T06:22:06;9.23;;;8.63;;
9034;SDS011;4552;43.422;24.592;2022-10-26T06:24:48;8.50;;;7.80;;
9034;SDS011;4552;43.422;24.592;2022-10-26T06:27:30;8.97;;;8.37;;
9034;SDS011;4552;43.422;24.592;2022-10-26T06:30:05;9.00;;;8.27;;
9034;SDS011;4552;43.422;24.592;2022-10-26T06:32:34;8.47;;;7.87;;
9034;SDS011;4552;43.422;24.592;2022-10-26T06:35:06;7.97;;;7.47;;
9034;SDS011;4552;43.422;24.592;2022-10-26T06:37:43;7.23;;;6.83;;
9034;SDS011;4552;43.422;24.592;2022-10-26T06:40:13;6.97;;;6.47;;
9034;SDS011;4552;43.422;24.592;2022-10-26T06:42:42;7.80;;;7.20;;
9034;SDS011;4552;43.422;24.592;2022-10-26T06:45:10;7.10;;;6.60;;
9034;SDS011;4552;43.422;24.592;2022-10-26T06:47:40;4.50;;;4.20;;
9034;SDS011;4552;43.422;24.592;2022-10-26T06:50:13;6.50;;;6.10;;
9034;SDS011;4552;43.422;24.592;2022-10-26T06:52:53;7.00;;;6.50;;
9034;SDS011;4552;43.422;24.592;2022-10-26T06:55:33;6.67;;;6.17;;
9034;SDS011;4552;43.422;24.592;2022-10-26T06:58:07;6.90;;;6.30;;
9034;SDS011;4552;43.422;24.592;2022-10-26T07:00:36;7.50;;;6.87;;
9034;SDS011;4552;43.422;24.592;2022-10-26T07:03:05;6.87;;;6.40;;
9034;SDS011;4552;43.422;24.592;2022-10-26T07:05:32;6.53;;;5.93;;
9034;SDS011;4552;43.422;24.592;2022-10-26T07:07:59;6.27;;;5.77;;
9034;SDS011;4552;43.422;24.592;2022-10-26T07:10:26;4.13;;;2.60;;
9034;SDS011;4552;43.422;24.592;2022-10-26T07:12:55;18.07;;;15.23;;
9034;SDS011;4552;43.422;24.592;2022-10-26T07:15:22;11.87;;;8.27;;
9034;SDS011;4552;43.422;24.592;2022-10-26T07:17:49;4.67;;;4.27;;
9034;SDS011;4552;43.422;24.592;2022-10-26T07:20:17;3.77;;;2.53;;
9034;SDS011;4552;43.422;24.592;2022-10-26T07:22:49;2.40;;;2.20;;
9034;SDS011;4552;43.422;24.592;2022-10-26T07:25:17;3.50;;;2.17;;
9034;SDS011;4552;43.422;24.592;2022-10-26T07:27:45;2.80;;;2.40;;
9034;SDS011;4552;43.422;24.592;2022-10-26T07:30:13;3.27;;;2.47;;
9034;SDS011;4552;43.422;24.592;2022-10-26T07:32:40;5.53;;;2.43;;
9034;SDS011;4552;43.422;24.592;2022-10-26T07:35:08;4.00;;;2.77;;
9034;SDS011;4552;43.422;24.592;2022-10-26T07:37:35;3.20;;;2.73;;
9034;SDS011;4552;43.422;24.592;2022-10-26T07:40:02;4.13;;;2.80;;
9034;SDS011;4552;43.422;24.592;2022-10-26T07:42:30;4.63;;;3.00;;
9034;SDS011;4552;43.422;24.592;2022-10-26T07:44:57;5.33;;;2.80;;
9034;SDS011;4552;43.422;24.592;2022-10-26T07:47:26;6.07;;;2.80;;
9034;SDS011;4552;43.422;24.592;2022-10-26T07:49:52;3.17;;;2.40;;
9034;SDS011;4552;43.422;24.592;2022-10-26T07:52:19;4.47;;;3.10;;
9034;SDS011;4552;43.422;24.592;2022-10-26T07:54:46;5.40;;;3.30;;
9034;SDS011;4552;43.422;24.592;2022-10-26T07:57:14;2.67;;;2.47;;
9034;SDS011;4552;43.422;24.592;2022-10-26T07:59:41;4.40;;;3.07;;
9034;SDS011;4552;43.422;24.592;2022-10-26T08:02:08;4.70;;;2.80;;
9034;SDS011;4552;43.422;24.592;2022-10-26T08:04:37;4.40;;;3.07;;
9034;SDS011;4552;43.422;24.592;2022-10-26T08:07:04;6.07;;;3.70;;
9034;SDS011;4552;43.422;24.592;2022-10-26T08:09:33;4.87;;;3.00;;
9034;SDS011;4552;43.422;24.592;2022-10-26T08:12:00;3.47;;;2.80;;
9034;SDS011;4552;43.422;24.592;2022-10-26T08:14:27;3.60;;;2.60;;
9034;SDS011;4552;43.422;24.592;2022-10-26T08:16:54;6.03;;;3.83;;
9034;SDS011;4552;43.422;24.592;2022-10-26T08:19:21;5.27;;;3.03;;
9034;SDS011;4552;43.422;24.592;2022-10-26T08:21:50;7.10;;;4.10;;
9034;SDS011;4552;43.422;24.592;2022-10-26T08:24:17;11.30;;;6.60;;
9034;SDS011;4552;43.422;24.592;2022-10-26T08:26:45;5.23;;;3.43;;
9034;SDS011;4552;43.422;24.592;2022-10-26T08:29:11;5.23;;;2.90;;
9034;SDS011;4552;43.422;24.592;2022-10-26T08:31:38;4.07;;;2.93;;
9034;SDS011;4552;43.422;24.592;2022-10-26T08:34:05;2.83;;;2.57;;
9034;SDS011;4552;43.422;24.592;2022-10-26T08:36:32;6.83;;;3.57;;
9034;SDS011;4552;43.422;24.592;2022-10-26T08:39:01;10.43;;;5.17;;
9034;SDS011;4552;43.422;24.592;2022-10-26T08:41:31;9.57;;;5.07;;
9034;SDS011;4552;43.422;24.592;2022-10-26T08:44:02;2.80;;;2.43;;
9034;SDS011;4552;43.422;24.592;2022-10-26T08:46:36;13.40;;;10.13;;
9034;SDS011;4552;43.422;24.592;2022-10-26T08:49:16;6.03;;;3.43;;
9034;SDS011;4552;43.422;24.592;2022-10-26T08:51:46;3.33;;;3.03;;
9034;SDS011;4552;43.422;24.592;2022-10-26T08:54:17;4.70;;;3.27;;
9034;SDS011;4552;43.422;24.592;2022-10-26T08:56:54;4.97;;;4.47;;
9034;SDS011;4552;43.422;24.592;2022-10-26T08:59:27;3.83;;;3.07;;
9034;SDS011;4552;43.422;24.592;2022-10-26T09:01:59;6.77;;;5.53;;
9034;SDS011;4552;43.422;24.592;2022-10-26T09:04:27;6.00;;;3.67;;
9034;SDS011;4552;43.422;24.592;2022-10-26T09:06:59;3.40;;;2.67;;
9034;SDS011;4552;43.422;24.592;2022-10-26T09:09:36;2.93;;;2.63;;
9034;SDS011;4552;43.422;24.592;2022-10-26T09:12:10;5.23;;;2.40;;
9034;SDS011;4552;43.422;24.592;2022-10-26T09:14:48;3.27;;;2.60;;
9034;SDS011;4552;43.422;24.592;2022-10-26T09:17:27;3.27;;;2.60;;
9034;SDS011;4552;43.422;24.592;2022-10-26T09:20:19;2.90;;;2.53;;
9034;SDS011;4552;43.422;24.592;2022-10-26T09:23:04;4.90;;;3.43;;
9034;SDS011;4552;43.422;24.592;2022-10-26T09:25:43;6.40;;;4.77;;
9034;SDS011;4552;43.422;24.592;2022-10-26T09:28:17;2.87;;;2.47;;
9034;SDS011;4552;43.422;24.592;2022-10-26T09:30:45;6.25;;;5.65;;
9034;SDS011;4552;43.422;24.592;2022-10-26T09:33:14;5.57;;;5.27;;
9034;SDS011;4552;43.422;24.592;2022-10-26T09:35:43;5.10;;;4.80;;
9034;SDS011;4552;43.422;24.592;2022-10-26T09:38:16;6.10;;;5.57;;
9034;SDS011;4552;43.422;24.592;2022-10-26T09:40:51;6.43;;;6.00;;
9034;SDS011;4552;43.422;24.592;2022-10-26T09:43:24;5.87;;;5.50;;
9034;SDS011;4552;43.422;24.592;2022-10-26T09:45:55;7.53;;;6.93;;
9034;SDS011;4552;43.422;24.592;2022-10-26T09:48:25;5.60;;;5.20;;
9034;SDS011;4552;43.422;24.592;2022-10-26T09:50:58;5.33;;;4.97;;
9034;SDS011;4552;43.422;24.592;2022-10-26T09:53:31;7.57;;;4.27;;
9034;SDS011;4552;43.422;24.592;2022-10-26T09:56:02;7.13;;;4.83;;
9034;SDS011;4552;43.422;24.592;2022-10-26T09:58:35;5.90;;;5.40;;
9034;SDS011;4552;43.422;24.592;2022-10-26T10:01:14;5.20;;;4.90;;
9034;SDS011;4552;43.422;24.592;2022-10-26T10:03:47;5.50;;;5.10;;
9034;SDS011;4552;43.422;24.592;2022-10-26T10:06:15;5.03;;;4.70;;
9034;SDS011;4552;43.422;24.592;2022-10-26T10:09:03;13.03;;;10.07;;
9034;SDS011;4552;43.422;24.592;2022-10-26T10:11:39;6.10;;;5.60;;
9034;SDS011;4552;43.422;24.592;2022-10-26T10:14:12;2.75;;;1.92;;
9034;SDS011;4552;43.422;24.592;2022-10-26T10:16:48;1.60;;;1.50;;
9034;SDS011;4552;43.422;24.592;2022-10-26T10:19:20;3.77;;;1.80;;
9034;SDS011;4552;43.422;24.592;2022-10-26T10:21:49;4.57;;;2.47;;
9034;SDS011;4552;43.422;24.592;2022-10-26T10:24:26;2.00;;;1.80;;
9034;SDS011;4552;43.422;24.592;2022-10-26T10:26:59;2.07;;;1.63;;
9034;SDS011;4552;43.422;24.592;2022-10-26T10:29:29;3.30;;;1.77;;
9034;SDS011;4552;43.422;24.592;2022-10-26T10:31:58;2.50;;;2.00;;
9034;SDS011;4552;43.422;24.592;2022-10-26T10:34:26;3.33;;;2.13;;
9034;SDS011;4552;43.422;24.592;2022-10-26T10:36:55;4.90;;;3.07;;
9034;SDS011;4552;43.422;24.592;2022-10-26T10:39:33;2.17;;;1.93;;
9034;SDS011;4552;43.422;24.592;2022-10-26T10:42:05;2.67;;;2.07;;
9034;SDS011;4552;43.422;24.592;2022-10-26T10:44:39;2.40;;;1.83;;
9034;SDS011;4552;43.422;24.592;2022-10-26T10:47:13;1.70;;;1.60;;
9034;SDS011;4552;43.422;24.592;2022-10-26T10:49:48;2.53;;;1.90;;
9034;SDS011;4552;43.422;24.592;2022-10-26T10:52:21;1.90;;;1.60;;
9034;SDS011;4552;43.422;24.592;2022-10-26T10:54:51;4.87;;;1.83;;
9034;SDS011;4552;43.422;24.592;2022-10-26T10:57:29;1.90;;;1.70;;
9034;SDS011;4552;43.422;24.592;2022-10-26T11:00:07;2.17;;;1.70;;
9034;SDS011;4552;43.422;24.592;2022-10-26T11:02:43;1.50;;;1.40;;
9034;SDS011;4552;43.422;24.592;2022-10-26T11:05:45;1.77;;;1.60;;
9034;SDS011;4552;43.422;24.592;2022-10-26T11:08:21;1.60;;;1.50;;
9034;SDS011;4552;43.422;24.592;2022-10-26T11:10:53;2.00;;;1.83;;
9034;SDS011;4552;43.422;24.592;2022-10-26T11:13:28;1.60;;;1.50;;
9034;SDS011;4552;43.422;24.592;2022-10-26T11:16:02;1.60;;;1.50;;
9034;SDS011;4552;43.422;24.592;2022-10-26T11:18:32;1.70;;;1.60;;
9034;SDS011;4552;43.422;24.592;2022-10-26T11:21:03;2.30;;;1.87;;
9034;SDS011;4552;43.422;24.592;2022-10-26T11:23:40;2.00;;;1.77;;
9034;SDS011;4552;43.422;24.592;2022-10-26T11:26:12;3.63;;;1.93;;
9034;SDS011;4552;43.422;24.592;2022-10-26T11:28:48;4.60;;;2.20;;
9034;SDS011;4552;43.422;24.592;2022-10-26T11:31:21;1.50;;;1.40;;
9034;SDS011;4552;43.422;24.592;2022-10-26T11:33:59;2.00;;;1.80;;
9034;SDS011;4552;43.422;24.592;2022-10-26T11:36:34;1.90;;;1.60;;
9034;SDS011;4552;43.422;24.592;2022-10-26T11:39:07;2.30;;;1.67;;
9034;SDS011;4552;43.422;24.592;2022-10-26T11:41:42;1.73;;;1.63;;
9034;SDS011;4552;43.422;24.592;2022-10-26T11:44:17;1.87;;;1.50;;
9034;SDS011;4552;43.422;24.592;2022-10-26T11:46:53;3.10;;;1.77;;
9034;SDS011;4552;43.422;24.592;2022-10-26T11:49:26;1.70;;;1.60;;
9034;SDS011;4552;43.422;24.592;2022-10-26T11:51:58;1.30;;;1.20;;
9034;SDS011;4552;43.422;24.592;2022-10-26T11:54:33;2.97;;;1.77;;
9034;SDS011;4552;43.422;24.592;2022-10-26T11:57:03;1.70;;;1.60;;
9034;SDS011;4552;43.422;24.592;2022-10-26T11:59:34;2.17;;;1.90;;
9034;SDS011;4552;43.422;24.592;2022-10-26T12:02:09;4.23;;;2.03;;
9034;SDS011;4552;43.422;24.592;2022-10-26T12:04:40;1.93;;;1.40;;
9034;SDS011;4552;43.422;24.592;2022-10-26T12:07:12;2.40;;;1.90;;
9034;SDS011;4552;43.422;24.592;2022-10-26T12:09:46;1.67;;;1.57;;
9034;SDS011;4552;43.422;24.592;2022-10-26T12:12:14;2.43;;;1.60;;
9034;SDS011;4552;43.422;24.592;2022-10-26T12:14:50;3.13;;;2.27;;
9034;SDS011;4552;43.422;24.592;2022-10-26T12:17:24;3.80;;;2.33;;
9034;SDS011;4552;43.422;24.592;2022-10-26T12:19:58;1.53;;;1.43;;
9034;SDS011;4552;43.422;24.592;2022-10-26T12:22:32;2.10;;;1.90;;
9034;SDS011;4552;43.422;24.592;2022-10-26T12:25:04;2.43;;;1.63;;
9034;SDS011;4552;43.422;24.592;2022-10-26T12:27:48;1.50;;;1.40;;
9034;SDS011;4552;43.422;24.592;2022-10-26T12:30:28;1.40;;;1.30;;
9034;SDS011;4552;43.422;24.592;2022-10-26T12:32:58;2.73;;;1.97;;
9034;SDS011;4552;43.422;24.592;2022-10-26T12:35:36;2.00;;;1.80;;
9034;SDS011;4552;43.422;24.592;2022-10-26T12:41:18;1.93;;;1.50;;
9034;SDS011;4552;43.422;24.592;2022-10-26T12:43:47;1.67;;;1.53;;
9034;SDS011;4552;43.422;24.592;2022-10-26T12:52:25;3.07;;;1.60;;
9034;SDS011;4552;43.422;24.592;2022-10-26T12:55:12;2.27;;;1.63;;
9034;SDS011;4552;43.422;24.592;2022-10-26T12:57:51;5.07;;;1.30;;
9034;SDS011;4552;43.422;24.592;2022-10-26T13:00:28;1.60;;;1.50;;
9034;SDS011;4552;43.422;24.592;2022-10-26T13:03:03;1.50;;;1.40;;
9034;SDS011;4552;43.422;24.592;2022-10-26T13:08:39;1.60;;;1.40;;
9034;SDS011;4552;43.422;24.592;2022-10-26T13:11:12;1.57;;;1.47;;
9034;SDS011;4552;43.422;24.592;2022-10-26T13:13:41;1.60;;;1.50;;
9034;SDS011;4552;43.422;24.592;2022-10-26T13:16:09;1.50;;;1.40;;
9034;SDS011;4552;43.422;24.592;2022-10-26T13:18:41;1.57;;;1.30;;
9034;SDS011;4552;43.422;24.592;2022-10-26T13:21:13;1.60;;;1.50;;
9034;SDS011;4552;43.422;24.592;2022-10-26T13:23:41;1.50;;;1.37;;
9034;SDS011;4552;43.422;24.592;2022-10-26T13:26:12;1.80;;;1.50;;
9034;SDS011;4552;43.422;24.592;2022-10-26T13:28:45;1.90;;;1.48;;
9034;SDS011;4552;43.422;24.592;2022-10-26T13:34:22;1.40;;;1.30;;
9034;SDS011;4552;43.422;24.592;2022-10-26T13:36:52;2.80;;;1.50;;
9034;SDS011;4552;43.422;24.592;2022-10-26T13:39:28;1.40;;;1.30;;
9034;SDS011;4552;43.422;24.592;2022-10-26T13:41:58;2.97;;;1.60;;
9034;SDS011;4552;43.422;24.592;2022-10-26T13:44:27;3.47;;;2.10;;
9034;SDS011;4552;43.422;24.592;2022-10-26T13:47:01;4.63;;;1.47;;
9034;SDS011;4552;43.422;24.592;2022-10-26T13:49:35;1.50;;;1.40;;
9034;SDS011;4552;43.422;24.592;2022-10-26T13:52:14;2.93;;;1.53;;
9034;SDS011;4552;43.422;24.592;2022-10-26T13:54:46;1.63;;;1.43;;
9034;SDS011;4552;43.422;24.592;2022-10-26T13:57:17;2.50;;;2.03;;
9034;SDS011;4552;43.422;24.592;2022-10-26T13:59:46;2.87;;;1.57;;
9034;SDS011;4552;43.422;24.592;2022-10-26T14:02:15;1.63;;;1.50;;
9034;SDS011;4552;43.422;24.592;2022-10-26T14:04:46;4.17;;;1.80;;
9034;SDS011;4552;43.422;24.592;2022-10-26T14:07:18;1.73;;;1.37;;
9034;SDS011;4552;43.422;24.592;2022-10-26T14:09:52;2.27;;;1.27;;
9034;SDS011;4552;43.422;24.592;2022-10-26T14:12:21;2.23;;;1.60;;
9034;SDS011;4552;43.422;24.592;2022-10-26T14:14:50;1.90;;;1.60;;
9034;SDS011;4552;43.422;24.592;2022-10-26T14:17:19;2.20;;;1.80;;
9034;SDS011;4552;43.422;24.592;2022-10-26T14:19:55;2.33;;;1.57;;
9034;SDS011;4552;43.422;24.592;2022-10-26T14:22:22;3.00;;;1.83;;
9034;SDS011;4552;43.422;24.592;2022-10-26T14:24:53;1.90;;;1.60;;
9034;SDS011;4552;43.422;24.592;2022-10-26T14:27:21;1.40;;;1.30;;
9034;SDS011;4552;43.422;24.592;2022-10-26T14:29:50;2.43;;;1.60;;
9034;SDS011;4552;43.422;24.592;2022-10-26T14:32:19;2.60;;;1.70;;
9034;SDS011;4552;43.422;24.592;2022-10-26T14:34:57;2.60;;;1.70;;
9034;SDS011;4552;43.422;24.592;2022-10-26T14:37:29;2.17;;;1.80;;
9034;SDS011;4552;43.422;24.592;2022-10-26T14:40:03;4.43;;;1.63;;
9034;SDS011;4552;43.422;24.592;2022-10-26T14:42:34;2.17;;;1.80;;
9034;SDS011;4552;43.422;24.592;2022-10-26T14:45:16;2.00;;;1.80;;
9034;SDS011;4552;43.422;24.592;2022-10-26T14:47:48;4.93;;;2.10;;
9034;SDS011;4552;43.422;24.592;2022-10-26T14:50:17;2.20;;;1.80;;
9034;SDS011;4552;43.422;24.592;2022-10-26T14:52:48;3.00;;;2.50;;
9034;SDS011;4552;43.422;24.592;2022-10-26T14:55:23;9.65;;;8.88;;
9034;SDS011;4552;43.422;24.592;2022-10-26T14:58:05;9.50;;;8.90;;
9034;SDS011;4552;43.422;24.592;2022-10-26T15:00:38;9.60;;;9.00;;
9034;SDS011;4552;43.422;24.592;2022-10-26T15:03:07;9.60;;;9.00;;
9034;SDS011;4552;43.422;24.592;2022-10-26T15:05:40;9.60;;;8.90;;
9034;SDS011;4552;43.422;24.592;2022-10-26T15:11:06;9.20;;;8.60;;
9034;SDS011;4552;43.422;24.592;2022-10-26T15:13:39;9.83;;;9.10;;
9034;SDS011;4552;43.422;24.592;2022-10-26T15:16:09;10.10;;;9.10;;
9034;SDS011;4552;43.422;24.592;2022-10-26T15:18:42;9.80;;;9.10;;
9034;SDS011;4552;43.422;24.592;2022-10-26T15:21:19;9.53;;;8.93;;
9034;SDS011;4552;43.422;24.592;2022-10-26T15:23:49;9.33;;;8.73;;
9034;SDS011;4552;43.422;24.592;2022-10-26T15:26:17;3.93;;;3.07;;
9034;SDS011;4552;43.422;24.592;2022-10-26T15:28:45;9.27;;;8.50;;
9034;SDS011;4552;43.422;24.592;2022-10-26T15:31:29;12.00;;;10.93;;
9034;SDS011;4552;43.422;24.592;2022-10-26T15:34:05;9.50;;;8.77;;
9034;SDS011;4552;43.422;24.592;2022-10-26T15:36:43;10.20;;;9.50;;
9034;SDS011;4552;43.422;24.592;2022-10-26T15:39:12;10.30;;;9.50;;
9034;SDS011;4552;43.422;24.592;2022-10-26T15:41:43;11.20;;;10.30;;
9034;SDS011;4552;43.422;24.592;2022-10-26T15:44:12;10.90;;;10.00;;
9034;SDS011;4552;43.422;24.592;2022-10-26T15:46:43;10.30;;;9.33;;
9034;SDS011;4552;43.422;24.592;2022-10-26T15:49:14;11.50;;;10.20;;
9034;SDS011;4552;43.422;24.592;2022-10-26T15:51:48;10.27;;;9.37;;
9034;SDS011;4552;43.422;24.592;2022-10-26T15:54:15;15.07;;;11.20;;